sensor_id;sensor_type;location;lat;lon;timestamp;P1;durP1;ratioP1;P2;durP2;ratioP2
21959;SDS011;11144;43.030;25.108;2022-07-06T00:00:01;10.13;;;6.45;;
21959;SDS011;11144;43.030;25.108;2022-07-06T00:01:35;8.70;;;6.13;;
21959;SDS011;11144;43.030;25.108;2022-07-06T00:03:09;10.20;;;6.55;;
21959;SDS011;11144;43.030;25.108;2022-07-06T00:04:43;9.70;;;7.15;;
21959;SDS011;11144;43.030;25.108;2022-07-06T00:06:16;10.02;;;6.78;;
21959;SDS011;11144;43.030;25.108;2022-07-06T00:07:49;13.18;;;7.30;;
21959;SDS011;11144;43.030;25.108;2022-07-06T00:09:24;11.60;;;7.10;;
21959;SDS011;11144;43.030;25.108;2022-07-06T00:10:57;8.43;;;6.40;;
21959;SDS011;11144;43.030;25.108;2022-07-06T00:12:31;8.73;;;6.10;;
21959;SDS011;11144;43.030;25.108;2022-07-06T00:14:04;11.20;;;7.07;;
21959;SDS011;11144;43.030;25.108;2022-07-06T00:15:37;11.25;;;5.93;;
21959;SDS011;11144;43.030;25.108;2022-07-06T00:17:11;7.32;;;6.07;;
21959;SDS011;11144;43.030;25.108;2022-07-06T00:18:45;8.45;;;6.18;;
21959;SDS011;11144;43.030;25.108;2022-07-06T00:20:18;13.05;;;7.05;;
21959;SDS011;11144;43.030;25.108;2022-07-06T00:21:51;9.73;;;7.13;;
21959;SDS011;11144;43.030;25.108;2022-07-06T00:23:24;13.25;;;7.05;;
21959;SDS011;11144;43.030;25.108;2022-07-06T00:24:59;9.40;;;7.03;;
21959;SDS011;11144;43.030;25.108;2022-07-06T00:26:32;11.75;;;6.72;;
21959;SDS011;11144;43.030;25.108;2022-07-06T00:28:06;10.82;;;7.43;;
21959;SDS011;11144;43.030;25.108;2022-07-06T00:29:39;8.82;;;7.13;;
21959;SDS011;11144;43.030;25.108;2022-07-06T00:31:15;8.98;;;7.15;;
21959;SDS011;11144;43.030;25.108;2022-07-06T00:32:48;10.82;;;7.22;;
21959;SDS011;11144;43.030;25.108;2022-07-06T00:34:21;12.02;;;7.00;;
21959;SDS011;11144;43.030;25.108;2022-07-06T00:35:55;10.55;;;6.68;;
21959;SDS011;11144;43.030;25.108;2022-07-06T00:37:27;12.20;;;7.50;;
21959;SDS011;11144;43.030;25.108;2022-07-06T00:39:00;9.90;;;7.38;;
21959;SDS011;11144;43.030;25.108;2022-07-06T00:40:35;9.90;;;7.38;;
21959;SDS011;11144;43.030;25.108;2022-07-06T00:42:08;11.18;;;7.57;;
21959;SDS011;11144;43.030;25.108;2022-07-06T00:43:48;14.02;;;9.02;;
21959;SDS011;11144;43.030;25.108;2022-07-06T00:45:23;10.65;;;7.03;;
21959;SDS011;11144;43.030;25.108;2022-07-06T00:46:57;14.07;;;7.57;;
21959;SDS011;11144;43.030;25.108;2022-07-06T00:48:30;13.25;;;7.22;;
21959;SDS011;11144;43.030;25.108;2022-07-06T00:50:04;12.20;;;7.53;;
21959;SDS011;11144;43.030;25.108;2022-07-06T00:51:46;12.95;;;7.43;;
21959;SDS011;11144;43.030;25.108;2022-07-06T00:53:20;14.98;;;7.60;;
21959;SDS011;11144;43.030;25.108;2022-07-06T00:54:53;12.27;;;7.60;;
21959;SDS011;11144;43.030;25.108;2022-07-06T00:56:29;13.52;;;7.65;;
21959;SDS011;11144;43.030;25.108;2022-07-06T00:58:04;10.55;;;7.47;;
21959;SDS011;11144;43.030;25.108;2022-07-06T00:59:36;9.95;;;7.00;;
21959;SDS011;11144;43.030;25.108;2022-07-06T01:01:10;10.93;;;7.70;;
21959;SDS011;11144;43.030;25.108;2022-07-06T01:02:43;11.48;;;8.05;;
21959;SDS011;11144;43.030;25.108;2022-07-06T01:04:17;8.93;;;7.45;;
21959;SDS011;11144;43.030;25.108;2022-07-06T01:05:51;12.48;;;7.30;;
21959;SDS011;11144;43.030;25.108;2022-07-06T01:07:24;13.85;;;7.95;;
21959;SDS011;11144;43.030;25.108;2022-07-06T01:08:59;8.85;;;7.05;;
21959;SDS011;11144;43.030;25.108;2022-07-06T01:10:32;14.57;;;7.50;;
21959;SDS011;11144;43.030;25.108;2022-07-06T01:12:06;16.73;;;6.78;;
21959;SDS011;11144;43.030;25.108;2022-07-06T01:13:40;9.48;;;7.13;;
21959;SDS011;11144;43.030;25.108;2022-07-06T01:15:15;13.63;;;8.00;;
21959;SDS011;11144;43.030;25.108;2022-07-06T01:16:50;10.07;;;7.72;;
21959;SDS011;11144;43.030;25.108;2022-07-06T01:18:24;11.77;;;8.02;;
21959;SDS011;11144;43.030;25.108;2022-07-06T01:19:58;12.25;;;7.50;;
21959;SDS011;11144;43.030;25.108;2022-07-06T01:21:37;10.80;;;8.10;;
21959;SDS011;11144;43.030;25.108;2022-07-06T01:23:11;11.77;;;7.55;;
21959;SDS011;11144;43.030;25.108;2022-07-06T01:24:43;10.52;;;7.60;;
21959;SDS011;11144;43.030;25.108;2022-07-06T01:26:17;15.45;;;7.57;;
21959;SDS011;11144;43.030;25.108;2022-07-06T01:27:52;10.68;;;7.68;;
21959;SDS011;11144;43.030;25.108;2022-07-06T01:29:25;10.73;;;7.43;;
21959;SDS011;11144;43.030;25.108;2022-07-06T01:30:59;12.45;;;7.43;;
21959;SDS011;11144;43.030;25.108;2022-07-06T01:32:32;14.80;;;7.63;;
21959;SDS011;11144;43.030;25.108;2022-07-06T01:34:05;14.77;;;8.40;;
21959;SDS011;11144;43.030;25.108;2022-07-06T01:35:40;11.38;;;7.93;;
21959;SDS011;11144;43.030;25.108;2022-07-06T01:37:14;8.63;;;7.40;;
21959;SDS011;11144;43.030;25.108;2022-07-06T01:38:48;9.95;;;8.05;;
21959;SDS011;11144;43.030;25.108;2022-07-06T01:40:22;13.15;;;8.13;;
21959;SDS011;11144;43.030;25.108;2022-07-06T01:41:55;8.82;;;7.13;;
21959;SDS011;11144;43.030;25.108;2022-07-06T01:43:29;9.07;;;7.07;;
21959;SDS011;11144;43.030;25.108;2022-07-06T01:45:02;12.18;;;7.95;;
21959;SDS011;11144;43.030;25.108;2022-07-06T01:46:36;11.70;;;8.05;;
21959;SDS011;11144;43.030;25.108;2022-07-06T01:48:12;11.35;;;7.40;;
21959;SDS011;11144;43.030;25.108;2022-07-06T01:49:45;9.93;;;7.82;;
21959;SDS011;11144;43.030;25.108;2022-07-06T01:51:21;10.95;;;7.53;;
21959;SDS011;11144;43.030;25.108;2022-07-06T01:52:54;11.48;;;7.85;;
21959;SDS011;11144;43.030;25.108;2022-07-06T01:54:26;11.48;;;7.90;;
21959;SDS011;11144;43.030;25.108;2022-07-06T01:56:00;11.32;;;8.32;;
21959;SDS011;11144;43.030;25.108;2022-07-06T01:57:34;10.57;;;7.57;;
21959;SDS011;11144;43.030;25.108;2022-07-06T01:59:08;13.10;;;8.65;;
21959;SDS011;11144;43.030;25.108;2022-07-06T02:00:42;10.35;;;7.88;;
21959;SDS011;11144;43.030;25.108;2022-07-06T02:02:15;11.88;;;7.90;;
21959;SDS011;11144;43.030;25.108;2022-07-06T02:03:49;11.38;;;8.05;;
21959;SDS011;11144;43.030;25.108;2022-07-06T02:05:23;10.13;;;7.47;;
21959;SDS011;11144;43.030;25.108;2022-07-06T02:06:57;10.20;;;7.53;;
21959;SDS011;11144;43.030;25.108;2022-07-06T02:08:31;12.23;;;8.82;;
21959;SDS011;11144;43.030;25.108;2022-07-06T02:10:05;10.57;;;7.38;;
21959;SDS011;11144;43.030;25.108;2022-07-06T02:11:37;13.38;;;8.18;;
21959;SDS011;11144;43.030;25.108;2022-07-06T02:13:11;9.32;;;7.80;;
21959;SDS011;11144;43.030;25.108;2022-07-06T02:14:44;10.18;;;7.95;;
21959;SDS011;11144;43.030;25.108;2022-07-06T02:16:17;10.68;;;7.68;;
21959;SDS011;11144;43.030;25.108;2022-07-06T02:17:51;10.25;;;7.72;;
21959;SDS011;11144;43.030;25.108;2022-07-06T02:19:28;12.98;;;8.57;;
21959;SDS011;11144;43.030;25.108;2022-07-06T02:21:01;10.57;;;8.00;;
21959;SDS011;11144;43.030;25.108;2022-07-06T02:22:36;10.10;;;7.75;;
21959;SDS011;11144;43.030;25.108;2022-07-06T02:24:11;12.38;;;8.32;;
21959;SDS011;11144;43.030;25.108;2022-07-06T02:25:45;9.63;;;7.57;;
21959;SDS011;11144;43.030;25.108;2022-07-06T02:27:19;12.98;;;8.90;;
21959;SDS011;11144;43.030;25.108;2022-07-06T02:28:52;12.98;;;8.07;;
21959;SDS011;11144;43.030;25.108;2022-07-06T02:30:26;14.73;;;7.97;;
21959;SDS011;11144;43.030;25.108;2022-07-06T02:32:00;15.07;;;7.82;;
21959;SDS011;11144;43.030;25.108;2022-07-06T02:33:33;13.95;;;8.10;;
21959;SDS011;11144;43.030;25.108;2022-07-06T02:35:06;10.73;;;7.63;;
21959;SDS011;11144;43.030;25.108;2022-07-06T02:36:39;16.08;;;7.90;;
21959;SDS011;11144;43.030;25.108;2022-07-06T02:38:14;12.18;;;8.48;;
21959;SDS011;11144;43.030;25.108;2022-07-06T02:39:46;16.38;;;7.85;;
21959;SDS011;11144;43.030;25.108;2022-07-06T02:41:19;19.50;;;9.18;;
21959;SDS011;11144;43.030;25.108;2022-07-06T02:42:53;20.65;;;9.80;;
21959;SDS011;11144;43.030;25.108;2022-07-06T02:44:26;17.65;;;10.55;;
21959;SDS011;11144;43.030;25.108;2022-07-06T02:45:59;19.17;;;9.10;;
21959;SDS011;11144;43.030;25.108;2022-07-06T02:47:33;18.20;;;10.13;;
21959;SDS011;11144;43.030;25.108;2022-07-06T02:49:06;25.15;;;13.77;;
21959;SDS011;11144;43.030;25.108;2022-07-06T02:50:40;21.23;;;10.63;;
21959;SDS011;11144;43.030;25.108;2022-07-06T02:52:13;17.40;;;8.27;;
21959;SDS011;11144;43.030;25.108;2022-07-06T02:53:48;23.88;;;9.65;;
21959;SDS011;11144;43.030;25.108;2022-07-06T02:55:22;19.65;;;9.23;;
21959;SDS011;11144;43.030;25.108;2022-07-06T02:56:55;11.95;;;8.20;;
21959;SDS011;11144;43.030;25.108;2022-07-06T02:58:29;13.70;;;9.07;;
21959;SDS011;11144;43.030;25.108;2022-07-06T03:00:02;13.52;;;8.38;;
21959;SDS011;11144;43.030;25.108;2022-07-06T03:01:37;15.38;;;8.35;;
21959;SDS011;11144;43.030;25.108;2022-07-06T03:03:10;13.68;;;8.10;;
21959;SDS011;11144;43.030;25.108;2022-07-06T03:04:44;11.07;;;8.75;;
21959;SDS011;11144;43.030;25.108;2022-07-06T03:06:18;12.43;;;7.95;;
21959;SDS011;11144;43.030;25.108;2022-07-06T03:07:52;12.68;;;8.90;;
21959;SDS011;11144;43.030;25.108;2022-07-06T03:09:26;12.60;;;8.63;;
21959;SDS011;11144;43.030;25.108;2022-07-06T03:11:00;20.73;;;9.60;;
21959;SDS011;11144;43.030;25.108;2022-07-06T03:12:34;18.77;;;9.13;;
21959;SDS011;11144;43.030;25.108;2022-07-06T03:14:06;24.92;;;10.15;;
21959;SDS011;11144;43.030;25.108;2022-07-06T03:15:42;18.88;;;9.25;;
21959;SDS011;11144;43.030;25.108;2022-07-06T03:17:15;15.73;;;9.65;;
21959;SDS011;11144;43.030;25.108;2022-07-06T03:18:50;15.45;;;10.15;;
21959;SDS011;11144;43.030;25.108;2022-07-06T03:20:24;18.80;;;9.68;;
21959;SDS011;11144;43.030;25.108;2022-07-06T03:21:57;18.10;;;9.57;;
21959;SDS011;11144;43.030;25.108;2022-07-06T03:23:30;18.90;;;10.10;;
21959;SDS011;11144;43.030;25.108;2022-07-06T03:25:06;15.50;;;9.15;;
21959;SDS011;11144;43.030;25.108;2022-07-06T03:26:42;19.27;;;9.73;;
21959;SDS011;11144;43.030;25.108;2022-07-06T03:28:17;11.85;;;8.77;;
21959;SDS011;11144;43.030;25.108;2022-07-06T03:29:51;17.23;;;8.45;;
21959;SDS011;11144;43.030;25.108;2022-07-06T03:31:25;14.85;;;9.32;;
21959;SDS011;11144;43.030;25.108;2022-07-06T03:32:59;11.88;;;9.05;;
21959;SDS011;11144;43.030;25.108;2022-07-06T03:34:33;18.83;;;9.50;;
21959;SDS011;11144;43.030;25.108;2022-07-06T03:36:07;15.70;;;9.23;;
21959;SDS011;11144;43.030;25.108;2022-07-06T03:37:41;10.93;;;8.25;;
21959;SDS011;11144;43.030;25.108;2022-07-06T03:39:15;13.82;;;9.30;;
21959;SDS011;11144;43.030;25.108;2022-07-06T03:40:49;12.50;;;8.80;;
21959;SDS011;11144;43.030;25.108;2022-07-06T03:42:23;13.25;;;9.02;;
21959;SDS011;11144;43.030;25.108;2022-07-06T03:43:57;16.77;;;9.75;;
21959;SDS011;11144;43.030;25.108;2022-07-06T03:45:30;18.73;;;9.38;;
21959;SDS011;11144;43.030;25.108;2022-07-06T03:47:05;14.02;;;8.85;;
21959;SDS011;11144;43.030;25.108;2022-07-06T03:48:38;15.43;;;8.68;;
21959;SDS011;11144;43.030;25.108;2022-07-06T03:50:11;14.40;;;9.07;;
21959;SDS011;11144;43.030;25.108;2022-07-06T03:51:45;17.70;;;9.80;;
21959;SDS011;11144;43.030;25.108;2022-07-06T03:53:19;12.63;;;9.07;;
21959;SDS011;11144;43.030;25.108;2022-07-06T03:54:52;11.82;;;7.65;;
21959;SDS011;11144;43.030;25.108;2022-07-06T03:56:30;16.30;;;9.45;;
21959;SDS011;11144;43.030;25.108;2022-07-06T03:58:12;16.65;;;8.95;;
21959;SDS011;11144;43.030;25.108;2022-07-06T03:59:45;15.55;;;7.82;;
21959;SDS011;11144;43.030;25.108;2022-07-06T04:01:19;12.45;;;8.02;;
21959;SDS011;11144;43.030;25.108;2022-07-06T04:02:51;14.93;;;8.45;;
21959;SDS011;11144;43.030;25.108;2022-07-06T04:04:29;14.43;;;8.40;;
21959;SDS011;11144;43.030;25.108;2022-07-06T04:06:03;11.40;;;7.85;;
21959;SDS011;11144;43.030;25.108;2022-07-06T04:07:37;12.35;;;7.97;;
21959;SDS011;11144;43.030;25.108;2022-07-06T04:09:11;12.32;;;7.97;;
21959;SDS011;11144;43.030;25.108;2022-07-06T04:10:45;10.75;;;8.00;;
21959;SDS011;11144;43.030;25.108;2022-07-06T04:12:19;10.80;;;7.93;;
21959;SDS011;11144;43.030;25.108;2022-07-06T04:13:52;12.50;;;8.80;;
21959;SDS011;11144;43.030;25.108;2022-07-06T04:15:27;12.13;;;8.20;;
21959;SDS011;11144;43.030;25.108;2022-07-06T04:17:00;15.63;;;8.18;;
21959;SDS011;11144;43.030;25.108;2022-07-06T04:18:55;10.25;;;7.60;;
21959;SDS011;11144;43.030;25.108;2022-07-06T04:20:29;12.35;;;7.80;;
21959;SDS011;11144;43.030;25.108;2022-07-06T04:22:02;11.82;;;7.85;;
21959;SDS011;11144;43.030;25.108;2022-07-06T04:23:41;12.48;;;7.97;;
21959;SDS011;11144;43.030;25.108;2022-07-06T04:25:15;10.77;;;8.32;;
21959;SDS011;11144;43.030;25.108;2022-07-06T04:26:48;10.05;;;7.90;;
21959;SDS011;11144;43.030;25.108;2022-07-06T04:28:23;10.52;;;7.72;;
21959;SDS011;11144;43.030;25.108;2022-07-06T04:29:57;8.98;;;7.32;;
21959;SDS011;11144;43.030;25.108;2022-07-06T04:31:30;8.98;;;7.40;;
21959;SDS011;11144;43.030;25.108;2022-07-06T04:33:04;9.00;;;7.13;;
21959;SDS011;11144;43.030;25.108;2022-07-06T04:34:39;15.30;;;8.07;;
21959;SDS011;11144;43.030;25.108;2022-07-06T04:36:12;10.75;;;7.75;;
21959;SDS011;11144;43.030;25.108;2022-07-06T04:37:48;10.93;;;7.32;;
21959;SDS011;11144;43.030;25.108;2022-07-06T04:39:23;9.50;;;7.18;;
21959;SDS011;11144;43.030;25.108;2022-07-06T04:40:57;9.20;;;7.38;;
21959;SDS011;11144;43.030;25.108;2022-07-06T04:42:30;10.48;;;7.55;;
21959;SDS011;11144;43.030;25.108;2022-07-06T04:44:05;10.50;;;7.43;;
21959;SDS011;11144;43.030;25.108;2022-07-06T04:45:38;9.05;;;6.97;;
21959;SDS011;11144;43.030;25.108;2022-07-06T04:47:12;8.68;;;7.28;;
21959;SDS011;11144;43.030;25.108;2022-07-06T04:48:46;14.43;;;8.13;;
21959;SDS011;11144;43.030;25.108;2022-07-06T04:50:26;10.00;;;6.88;;
21959;SDS011;11144;43.030;25.108;2022-07-06T04:52:03;11.52;;;7.40;;
21959;SDS011;11144;43.030;25.108;2022-07-06T04:53:37;10.65;;;7.80;;
21959;SDS011;11144;43.030;25.108;2022-07-06T04:55:10;12.27;;;8.02;;
21959;SDS011;11144;43.030;25.108;2022-07-06T04:56:46;10.90;;;7.90;;
21959;SDS011;11144;43.030;25.108;2022-07-06T04:58:20;10.63;;;7.25;;
21959;SDS011;11144;43.030;25.108;2022-07-06T04:59:55;7.80;;;7.00;;
21959;SDS011;11144;43.030;25.108;2022-07-06T05:01:28;11.65;;;7.05;;
21959;SDS011;11144;43.030;25.108;2022-07-06T05:03:02;16.60;;;7.97;;
21959;SDS011;11144;43.030;25.108;2022-07-06T05:04:35;9.60;;;6.80;;
21959;SDS011;11144;43.030;25.108;2022-07-06T05:06:09;11.23;;;7.47;;
21959;SDS011;11144;43.030;25.108;2022-07-06T05:07:42;9.07;;;7.32;;
21959;SDS011;11144;43.030;25.108;2022-07-06T05:09:16;11.63;;;7.72;;
21959;SDS011;11144;43.030;25.108;2022-07-06T05:10:50;14.30;;;8.10;;
21959;SDS011;11144;43.030;25.108;2022-07-06T05:12:26;9.52;;;7.72;;
21959;SDS011;11144;43.030;25.108;2022-07-06T05:13:59;12.07;;;7.35;;
21959;SDS011;11144;43.030;25.108;2022-07-06T05:15:34;15.48;;;7.75;;
21959;SDS011;11144;43.030;25.108;2022-07-06T05:17:09;14.52;;;7.43;;
21959;SDS011;11144;43.030;25.108;2022-07-06T05:18:43;11.32;;;7.35;;
21959;SDS011;11144;43.030;25.108;2022-07-06T05:20:16;12.65;;;7.93;;
21959;SDS011;11144;43.030;25.108;2022-07-06T05:21:52;11.32;;;7.22;;
21959;SDS011;11144;43.030;25.108;2022-07-06T05:23:25;8.20;;;7.07;;
21959;SDS011;11144;43.030;25.108;2022-07-06T05:25:00;7.90;;;6.55;;
21959;SDS011;11144;43.030;25.108;2022-07-06T05:26:33;13.27;;;7.30;;
21959;SDS011;11144;43.030;25.108;2022-07-06T05:28:07;11.90;;;7.15;;
21959;SDS011;11144;43.030;25.108;2022-07-06T05:29:40;10.25;;;6.93;;
21959;SDS011;11144;43.030;25.108;2022-07-06T05:31:15;10.95;;;6.85;;
21959;SDS011;11144;43.030;25.108;2022-07-06T05:32:48;8.57;;;6.95;;
21959;SDS011;11144;43.030;25.108;2022-07-06T05:34:22;12.07;;;6.38;;
21959;SDS011;11144;43.030;25.108;2022-07-06T05:35:55;11.75;;;7.95;;
21959;SDS011;11144;43.030;25.108;2022-07-06T05:37:31;8.00;;;6.07;;
21959;SDS011;11144;43.030;25.108;2022-07-06T05:39:05;10.95;;;6.65;;
21959;SDS011;11144;43.030;25.108;2022-07-06T05:40:39;6.50;;;5.90;;
21959;SDS011;11144;43.030;25.108;2022-07-06T05:42:12;9.57;;;5.82;;
21959;SDS011;11144;43.030;25.108;2022-07-06T05:43:46;7.10;;;5.90;;
21959;SDS011;11144;43.030;25.108;2022-07-06T05:45:20;11.00;;;5.93;;
21959;SDS011;11144;43.030;25.108;2022-07-06T05:46:57;6.95;;;6.25;;
21959;SDS011;11144;43.030;25.108;2022-07-06T05:48:51;12.00;;;6.05;;
21959;SDS011;11144;43.030;25.108;2022-07-06T05:50:42;7.22;;;4.85;;
21959;SDS011;11144;43.030;25.108;2022-07-06T05:52:15;6.50;;;5.32;;
21959;SDS011;11144;43.030;25.108;2022-07-06T05:53:48;7.55;;;5.43;;
21959;SDS011;11144;43.030;25.108;2022-07-06T05:55:22;6.00;;;5.28;;
21959;SDS011;11144;43.030;25.108;2022-07-06T05:56:57;7.68;;;4.80;;
21959;SDS011;11144;43.030;25.108;2022-07-06T05:58:30;9.73;;;5.55;;
21959;SDS011;11144;43.030;25.108;2022-07-06T06:00:05;6.38;;;5.25;;
21959;SDS011;11144;43.030;25.108;2022-07-06T06:01:46;6.43;;;4.88;;
21959;SDS011;11144;43.030;25.108;2022-07-06T06:03:25;8.85;;;4.45;;
21959;SDS011;11144;43.030;25.108;2022-07-06T06:04:58;10.57;;;4.78;;
21959;SDS011;11144;43.030;25.108;2022-07-06T06:06:32;6.15;;;4.70;;
21959;SDS011;11144;43.030;25.108;2022-07-06T06:08:06;8.38;;;5.13;;
21959;SDS011;11144;43.030;25.108;2022-07-06T06:09:38;7.35;;;4.70;;
21959;SDS011;11144;43.030;25.108;2022-07-06T06:11:12;6.45;;;4.47;;
21959;SDS011;11144;43.030;25.108;2022-07-06T06:12:45;9.57;;;4.93;;
21959;SDS011;11144;43.030;25.108;2022-07-06T06:14:19;8.57;;;4.07;;
21959;SDS011;11144;43.030;25.108;2022-07-06T06:15:52;6.95;;;4.72;;
21959;SDS011;11144;43.030;25.108;2022-07-06T06:17:25;9.77;;;4.53;;
21959;SDS011;11144;43.030;25.108;2022-07-06T06:19:01;4.82;;;4.32;;
21959;SDS011;11144;43.030;25.108;2022-07-06T06:20:35;8.15;;;3.97;;
21959;SDS011;11144;43.030;25.108;2022-07-06T06:22:08;9.50;;;5.50;;
21959;SDS011;11144;43.030;25.108;2022-07-06T06:23:41;7.78;;;4.22;;
21959;SDS011;11144;43.030;25.108;2022-07-06T06:25:15;6.80;;;4.07;;
21959;SDS011;11144;43.030;25.108;2022-07-06T06:26:49;6.43;;;4.82;;
21959;SDS011;11144;43.030;25.108;2022-07-06T06:28:22;6.70;;;4.80;;
21959;SDS011;11144;43.030;25.108;2022-07-06T06:29:57;7.25;;;4.10;;
21959;SDS011;11144;43.030;25.108;2022-07-06T06:31:30;8.20;;;4.55;;
21959;SDS011;11144;43.030;25.108;2022-07-06T06:33:11;5.28;;;4.30;;
21959;SDS011;11144;43.030;25.108;2022-07-06T06:34:48;11.57;;;4.45;;
21959;SDS011;11144;43.030;25.108;2022-07-06T06:36:21;8.05;;;4.78;;
21959;SDS011;11144;43.030;25.108;2022-07-06T06:37:55;8.80;;;5.30;;
21959;SDS011;11144;43.030;25.108;2022-07-06T06:39:28;5.88;;;4.72;;
21959;SDS011;11144;43.030;25.108;2022-07-06T06:41:01;7.82;;;5.20;;
21959;SDS011;11144;43.030;25.108;2022-07-06T06:42:35;8.80;;;5.15;;
21959;SDS011;11144;43.030;25.108;2022-07-06T06:44:12;11.10;;;5.38;;
21959;SDS011;11144;43.030;25.108;2022-07-06T06:45:46;6.57;;;4.82;;
21959;SDS011;11144;43.030;25.108;2022-07-06T06:47:19;6.45;;;4.97;;
21959;SDS011;11144;43.030;25.108;2022-07-06T06:48:53;11.60;;;5.18;;
21959;SDS011;11144;43.030;25.108;2022-07-06T06:50:27;8.35;;;5.07;;
21959;SDS011;11144;43.030;25.108;2022-07-06T06:52:01;6.07;;;4.45;;
21959;SDS011;11144;43.030;25.108;2022-07-06T06:53:55;8.45;;;5.57;;
21959;SDS011;11144;43.030;25.108;2022-07-06T06:55:28;7.57;;;5.78;;
21959;SDS011;11144;43.030;25.108;2022-07-06T06:57:01;6.30;;;5.47;;
21959;SDS011;11144;43.030;25.108;2022-07-06T06:58:35;7.25;;;5.15;;
21959;SDS011;11144;43.030;25.108;2022-07-06T07:00:28;7.57;;;5.53;;
21959;SDS011;11144;43.030;25.108;2022-07-06T07:02:02;6.70;;;5.30;;
21959;SDS011;11144;43.030;25.108;2022-07-06T07:03:36;9.63;;;5.95;;
21959;SDS011;11144;43.030;25.108;2022-07-06T07:05:09;9.95;;;6.20;;
21959;SDS011;11144;43.030;25.108;2022-07-06T07:06:43;6.18;;;5.57;;
21959;SDS011;11144;43.030;25.108;2022-07-06T07:08:17;7.55;;;5.50;;
21959;SDS011;11144;43.030;25.108;2022-07-06T07:09:50;7.28;;;5.38;;
21959;SDS011;11144;43.030;25.108;2022-07-06T07:11:24;9.43;;;5.75;;
21959;SDS011;11144;43.030;25.108;2022-07-06T07:12:57;7.70;;;5.47;;
21959;SDS011;11144;43.030;25.108;2022-07-06T07:14:31;8.30;;;5.22;;
21959;SDS011;11144;43.030;25.108;2022-07-06T07:16:04;6.47;;;5.78;;
21959;SDS011;11144;43.030;25.108;2022-07-06T07:17:38;8.75;;;5.28;;
21959;SDS011;11144;43.030;25.108;2022-07-06T07:19:11;8.32;;;5.50;;
21959;SDS011;11144;43.030;25.108;2022-07-06T07:20:45;7.13;;;5.90;;
21959;SDS011;11144;43.030;25.108;2022-07-06T07:22:19;7.18;;;5.38;;
21959;SDS011;11144;43.030;25.108;2022-07-06T07:23:52;9.38;;;5.43;;
21959;SDS011;11144;43.030;25.108;2022-07-06T07:25:26;7.45;;;5.45;;
21959;SDS011;11144;43.030;25.108;2022-07-06T07:27:00;11.30;;;5.00;;
21959;SDS011;11144;43.030;25.108;2022-07-06T07:28:33;8.65;;;6.15;;
21959;SDS011;11144;43.030;25.108;2022-07-06T07:30:07;7.10;;;4.75;;
21959;SDS011;11144;43.030;25.108;2022-07-06T07:31:41;7.43;;;4.95;;
21959;SDS011;11144;43.030;25.108;2022-07-06T07:33:15;6.60;;;5.20;;
21959;SDS011;11144;43.030;25.108;2022-07-06T07:34:48;8.82;;;5.82;;
21959;SDS011;11144;43.030;25.108;2022-07-06T07:36:21;7.38;;;4.90;;
21959;SDS011;11144;43.030;25.108;2022-07-06T07:37:56;6.72;;;5.00;;
21959;SDS011;11144;43.030;25.108;2022-07-06T07:39:29;8.13;;;5.15;;
21959;SDS011;11144;43.030;25.108;2022-07-06T07:41:03;6.93;;;4.88;;
21959;SDS011;11144;43.030;25.108;2022-07-06T07:42:37;8.07;;;5.00;;
21959;SDS011;11144;43.030;25.108;2022-07-06T07:44:12;4.55;;;3.85;;
21959;SDS011;11144;43.030;25.108;2022-07-06T07:45:46;5.63;;;3.97;;
21959;SDS011;11144;43.030;25.108;2022-07-06T07:47:20;10.18;;;4.80;;
21959;SDS011;11144;43.030;25.108;2022-07-06T07:48:53;6.80;;;5.13;;
21959;SDS011;11144;43.030;25.108;2022-07-06T07:50:28;5.53;;;4.10;;
21959;SDS011;11144;43.030;25.108;2022-07-06T07:52:02;7.03;;;4.03;;
21959;SDS011;11144;43.030;25.108;2022-07-06T07:53:37;7.18;;;4.30;;
21959;SDS011;11144;43.030;25.108;2022-07-06T07:55:10;10.13;;;4.35;;
21959;SDS011;11144;43.030;25.108;2022-07-06T07:57:04;9.25;;;3.97;;
21959;SDS011;11144;43.030;25.108;2022-07-06T07:58:38;12.07;;;4.38;;
21959;SDS011;11144;43.030;25.108;2022-07-06T08:00:12;5.63;;;4.30;;
21959;SDS011;11144;43.030;25.108;2022-07-06T08:01:46;7.82;;;5.20;;
21959;SDS011;11144;43.030;25.108;2022-07-06T08:03:20;7.00;;;4.60;;
21959;SDS011;11144;43.030;25.108;2022-07-06T08:04:53;10.50;;;4.78;;
21959;SDS011;11144;43.030;25.108;2022-07-06T08:06:26;8.60;;;4.75;;
21959;SDS011;11144;43.030;25.108;2022-07-06T08:08:00;6.82;;;5.03;;
21959;SDS011;11144;43.030;25.108;2022-07-06T08:09:35;10.52;;;4.40;;
21959;SDS011;11144;43.030;25.108;2022-07-06T08:11:08;7.57;;;4.68;;
21959;SDS011;11144;43.030;25.108;2022-07-06T08:12:50;8.05;;;4.75;;
21959;SDS011;11144;43.030;25.108;2022-07-06T08:14:23;7.35;;;4.28;;
21959;SDS011;11144;43.030;25.108;2022-07-06T08:15:57;8.50;;;5.28;;
21959;SDS011;11144;43.030;25.108;2022-07-06T08:17:31;9.05;;;4.50;;
21959;SDS011;11144;43.030;25.108;2022-07-06T08:19:05;7.53;;;4.82;;
21959;SDS011;11144;43.030;25.108;2022-07-06T08:20:41;9.27;;;4.80;;
21959;SDS011;11144;43.030;25.108;2022-07-06T08:22:35;15.00;;;4.60;;
21959;SDS011;11144;43.030;25.108;2022-07-06T08:24:09;7.25;;;4.72;;
21959;SDS011;11144;43.030;25.108;2022-07-06T08:25:44;8.13;;;4.68;;
21959;SDS011;11144;43.030;25.108;2022-07-06T08:27:17;11.15;;;5.30;;
21959;SDS011;11144;43.030;25.108;2022-07-06T08:28:50;10.10;;;4.15;;
21959;SDS011;11144;43.030;25.108;2022-07-06T08:30:24;6.88;;;4.78;;
21959;SDS011;11144;43.030;25.108;2022-07-06T08:31:58;6.25;;;4.30;;
21959;SDS011;11144;43.030;25.108;2022-07-06T08:33:43;6.43;;;4.63;;
21959;SDS011;11144;43.030;25.108;2022-07-06T08:35:16;9.73;;;4.70;;
21959;SDS011;11144;43.030;25.108;2022-07-06T08:36:50;10.13;;;4.55;;
21959;SDS011;11144;43.030;25.108;2022-07-06T08:38:23;6.43;;;4.90;;
21959;SDS011;11144;43.030;25.108;2022-07-06T08:39:57;10.40;;;4.88;;
21959;SDS011;11144;43.030;25.108;2022-07-06T08:41:32;9.57;;;4.07;;
21959;SDS011;11144;43.030;25.108;2022-07-06T08:43:05;5.93;;;4.82;;
21959;SDS011;11144;43.030;25.108;2022-07-06T08:44:39;5.63;;;4.15;;
21959;SDS011;11144;43.030;25.108;2022-07-06T08:46:12;7.22;;;4.43;;
21959;SDS011;11144;43.030;25.108;2022-07-06T08:47:47;9.57;;;5.18;;
21959;SDS011;11144;43.030;25.108;2022-07-06T08:49:22;8.38;;;5.03;;
21959;SDS011;11144;43.030;25.108;2022-07-06T08:50:56;6.13;;;4.47;;
21959;SDS011;11144;43.030;25.108;2022-07-06T08:52:30;6.95;;;5.00;;
21959;SDS011;11144;43.030;25.108;2022-07-06T08:54:05;5.70;;;4.60;;
21959;SDS011;11144;43.030;25.108;2022-07-06T08:55:40;5.07;;;4.57;;
21959;SDS011;11144;43.030;25.108;2022-07-06T08:57:15;17.30;;;6.05;;
21959;SDS011;11144;43.030;25.108;2022-07-06T08:58:49;7.80;;;4.78;;
21959;SDS011;11144;43.030;25.108;2022-07-06T09:00:23;7.10;;;5.43;;
21959;SDS011;11144;43.030;25.108;2022-07-06T09:01:58;6.63;;;4.43;;
21959;SDS011;11144;43.030;25.108;2022-07-06T09:03:32;7.93;;;5.25;;
21959;SDS011;11144;43.030;25.108;2022-07-06T09:05:07;8.18;;;6.15;;
21959;SDS011;11144;43.030;25.108;2022-07-06T09:06:42;9.70;;;5.47;;
21959;SDS011;11144;43.030;25.108;2022-07-06T09:08:18;8.88;;;5.90;;
21959;SDS011;11144;43.030;25.108;2022-07-06T09:09:53;6.82;;;4.85;;
21959;SDS011;11144;43.030;25.108;2022-07-06T09:11:27;8.77;;;5.13;;
21959;SDS011;11144;43.030;25.108;2022-07-06T09:13:06;9.52;;;5.35;;
21959;SDS011;11144;43.030;25.108;2022-07-06T09:14:40;8.23;;;5.68;;